sensor_id;sensor_type;location;lat;lon;timestamp;P1;durP1;ratioP1;P2;durP2;ratioP2
53674;SDS011;39574;50.534;8.500;2024-03-23T00:58:24;28.7;;;15.2;;
53674;SDS011;39574;50.534;8.500;2024-03-23T01:03:24;27.8;;;14.9;;
53674;SDS011;39574;50.534;8.500;2024-03-23T01:08:23;27.2;;;14.8;;
53674;SDS011;39574;50.534;8.500;2024-03-23T01:13:22;27.1;;;14.7;;
53674;SDS011;39574;50.534;8.500;2024-03-23T01:18:22;26.2;;;14.4;;
53674;SDS011;39574;50.534;8.500;2024-03-23T01:23:20;26.1;;;14.6;;
53674;SDS011;39574;50.534;8.500;2024-03-23T01:28:19;25.0;;;14.2;;
53674;SDS011;39574;50.534;8.500;2024-03-23T01:33:19;25.2;;;14.1;;
53674;SDS011;39574;50.534;8.500;2024-03-23T01:38:18;27.2;;;14.7;;
53674;SDS011;39574;50.534;8.500;2024-03-23T01:43:17;27.4;;;14.5;;
53674;SDS011;39574;50.534;8.500;2024-03-23T01:48:16;28.3;;;15.0;;
53674;SDS011;39574;50.534;8.500;2024-03-23T01:53:15;30.4;;;15.8;;
53674;SDS011;39574;50.534;8.500;2024-03-23T01:58:14;31.9;;;16.6;;
53674;SDS011;39574;50.534;8.500;2024-03-23T02:03:21;31.3;;;16.7;;
53674;SDS011;39574;50.534;8.500;2024-03-23T02:08:13;31.0;;;16.4;;
53674;SDS011;39574;50.534;8.500;2024-03-23T02:13:16;30.2;;;16.0;;
53674;SDS011;39574;50.534;8.500;2024-03-23T02:18:11;28.9;;;15.6;;
53674;SDS011;39574;50.534;8.500;2024-03-23T02:23:13;28.9;;;15.8;;
53674;SDS011;39574;50.534;8.500;2024-03-23T02:28:09;30.1;;;16.3;;
53674;SDS011;39574;50.534;8.500;2024-03-23T02:33:08;29.3;;;15.8;;
53674;SDS011;39574;50.534;8.500;2024-03-23T02:38:07;29.3;;;15.7;;
53674;SDS011;39574;50.534;8.500;2024-03-23T02:43:06;29.2;;;15.6;;
53674;SDS011;39574;50.534;8.500;2024-03-23T02:53:05;30.7;;;16.5;;
53674;SDS011;39574;50.534;8.500;2024-03-23T02:58:04;31.4;;;17.2;;
53674;SDS011;39574;50.534;8.500;2024-03-23T03:03:03;30.9;;;16.9;;
53674;SDS011;39574;50.534;8.500;2024-03-23T03:08:02;29.6;;;16.0;;
53674;SDS011;39574;50.534;8.500;2024-03-23T03:13:02;27.6;;;15.3;;
53674;SDS011;39574;50.534;8.500;2024-03-23T03:18:00;27.0;;;15.1;;
53674;SDS011;39574;50.534;8.500;2024-03-23T03:22:59;28.2;;;15.3;;
53674;SDS011;39574;50.534;8.500;2024-03-23T03:27:59;30.3;;;16.6;;
53674;SDS011;39574;50.534;8.500;2024-03-23T03:32:58;31.1;;;16.8;;
53674;SDS011;39574;50.534;8.500;2024-03-23T03:37:57;30.3;;;16.3;;
53674;SDS011;39574;50.534;8.500;2024-03-23T03:42:56;25.6;;;13.2;;
53674;SDS011;39574;50.534;8.500;2024-03-23T03:47:55;17.8;;;8.9;;
53674;SDS011;39574;50.534;8.500;2024-03-23T03:52:54;11.4;;;5.4;;
53674;SDS011;39574;50.534;8.500;2024-03-23T03:57:53;7.2;;;3.1;;
53674;SDS011;39574;50.534;8.500;2024-03-23T04:02:52;5.3;;;2.0;;
53674;SDS011;39574;50.534;8.500;2024-03-23T04:07:56;4.4;;;1.6;;
53674;SDS011;39574;50.534;8.500;2024-03-23T04:12:50;4.0;;;1.5;;
53674;SDS011;39574;50.534;8.500;2024-03-23T04:17:49;4.1;;;1.6;;
53674;SDS011;39574;50.534;8.500;2024-03-23T04:22:49;3.9;;;1.6;;
53674;SDS011;39574;50.534;8.500;2024-03-23T04:27:48;3.7;;;1.5;;
53674;SDS011;39574;50.534;8.500;2024-03-23T04:32:47;3.8;;;1.5;;
53674;SDS011;39574;50.534;8.500;2024-03-23T04:37:46;3.7;;;1.4;;
53674;SDS011;39574;50.534;8.500;2024-03-23T04:42:49;3.6;;;1.2;;
53674;SDS011;39574;50.534;8.500;2024-03-23T04:47:44;3.6;;;1.2;;
53674;SDS011;39574;50.534;8.500;2024-03-23T04:52:43;3.6;;;1.3;;
53674;SDS011;39574;50.534;8.500;2024-03-23T04:57:42;3.4;;;1.3;;
53674;SDS011;39574;50.534;8.500;2024-03-23T05:02:44;3.5;;;1.4;;
53674;SDS011;39574;50.534;8.500;2024-03-23T05:07:45;8.8;;;4.1;;
53674;SDS011;39574;50.534;8.500;2024-03-23T05:12:39;12.9;;;6.3;;
53674;SDS011;39574;50.534;8.500;2024-03-23T05:17:38;10.6;;;5.2;;
53674;SDS011;39574;50.534;8.500;2024-03-23T05:22:37;7.7;;;3.6;;
53674;SDS011;39574;50.534;8.500;2024-03-23T05:27:36;5.0;;;2.2;;
53674;SDS011;39574;50.534;8.500;2024-03-23T05:32:35;3.5;;;1.5;;
53674;SDS011;39574;50.534;8.500;2024-03-23T05:37:34;3.2;;;1.3;;
53674;SDS011;39574;50.534;8.500;2024-03-23T05:42:34;3.4;;;1.5;;
53674;SDS011;39574;50.534;8.500;2024-03-23T05:47:33;3.4;;;1.4;;
53674;SDS011;39574;50.534;8.500;2024-03-23T05:52:31;3.7;;;1.6;;
53674;SDS011;39574;50.534;8.500;2024-03-23T05:57:35;3.7;;;1.7;;
53674;SDS011;39574;50.534;8.500;2024-03-23T06:02:30;3.8;;;1.5;;
53674;SDS011;39574;50.534;8.500;2024-03-23T06:07:29;3.6;;;1.4;;
53674;SDS011;39574;50.534;8.500;2024-03-23T06:12:28;3.5;;;1.3;;
53674;SDS011;39574;50.534;8.500;2024-03-23T06:17:27;3.8;;;1.4;;
53674;SDS011;39574;50.534;8.500;2024-03-23T06:22:26;4.3;;;1.6;;
53674;SDS011;39574;50.534;8.500;2024-03-23T06:27:25;4.8;;;1.8;;
53674;SDS011;39574;50.534;8.500;2024-03-23T06:32:24;7.0;;;3.6;;
53674;SDS011;39574;50.534;8.500;2024-03-23T06:37:23;7.5;;;3.8;;
53674;SDS011;39574;50.534;8.500;2024-03-23T06:42:25;7.2;;;3.8;;
53674;SDS011;39574;50.534;8.500;2024-03-23T06:47:21;7.6;;;3.5;;
53674;SDS011;39574;50.534;8.500;2024-03-23T06:52:20;7.9;;;3.3;;
53674;SDS011;39574;50.534;8.500;2024-03-23T06:57:23;7.7;;;3.1;;
53674;SDS011;39574;50.534;8.500;2024-03-23T07:02:18;8.2;;;3.6;;
53674;SDS011;39574;50.534;8.500;2024-03-23T07:07:17;8.9;;;3.7;;
53674;SDS011;39574;50.534;8.500;2024-03-23T07:12:16;11.7;;;4.9;;
53674;SDS011;39574;50.534;8.500;2024-03-23T07:17:14;10.4;;;4.1;;
53674;SDS011;39574;50.534;8.500;2024-03-23T07:22:14;9.6;;;3.5;;
53674;SDS011;39574;50.534;8.500;2024-03-23T07:27:13;10.4;;;3.4;;
53674;SDS011;39574;50.534;8.500;2024-03-23T07:32:12;9.5;;;3.6;;
53674;SDS011;39574;50.534;8.500;2024-03-23T07:37:11;9.7;;;3.7;;
53674;SDS011;39574;50.534;8.500;2024-03-23T07:42:10;10.3;;;3.9;;
53674;SDS011;39574;50.534;8.500;2024-03-23T07:47:09;11.7;;;4.4;;
53674;SDS011;39574;50.534;8.500;2024-03-23T07:52:08;11.8;;;4.4;;
53674;SDS011;39574;50.534;8.500;2024-03-23T07:57:07;13.6;;;5.3;;
53674;SDS011;39574;50.534;8.500;2024-03-23T08:02:06;14.7;;;5.5;;
53674;SDS011;39574;50.534;8.500;2024-03-23T08:07:05;14.3;;;5.7;;
53674;SDS011;39574;50.534;8.500;2024-03-23T08:12:04;15.2;;;6.0;;
53674;SDS011;39574;50.534;8.500;2024-03-23T08:17:06;15.6;;;6.1;;
53674;SDS011;39574;50.534;8.500;2024-03-23T08:22:02;15.3;;;6.4;;
53674;SDS011;39574;50.534;8.500;2024-03-23T08:27:01;14.9;;;6.4;;
53674;SDS011;39574;50.534;8.500;2024-03-23T08:32:05;14.1;;;6.3;;
53674;SDS011;39574;50.534;8.500;2024-03-23T08:36:59;14.4;;;6.7;;
53674;SDS011;39574;50.534;8.500;2024-03-23T08:42:02;15.3;;;6.5;;
53674;SDS011;39574;50.534;8.500;2024-03-23T08:46:56;15.1;;;6.4;;
53674;SDS011;39574;50.534;8.500;2024-03-23T08:51:56;14.8;;;6.3;;
53674;SDS011;39574;50.534;8.500;2024-03-23T08:56:55;14.6;;;6.1;;
53674;SDS011;39574;50.534;8.500;2024-03-23T09:01:54;15.7;;;6.1;;
53674;SDS011;39574;50.534;8.500;2024-03-23T09:06:53;15.7;;;5.7;;
53674;SDS011;39574;50.534;8.500;2024-03-23T09:11:53;15.3;;;5.4;;
53674;SDS011;39574;50.534;8.500;2024-03-23T09:16:51;15.0;;;5.4;;
53674;SDS011;39574;50.534;8.500;2024-03-23T09:21:55;14.0;;;5.2;;
53674;SDS011;39574;50.534;8.500;2024-03-23T09:26:51;13.7;;;4.9;;
53674;SDS011;39574;50.534;8.500;2024-03-23T09:31:48;15.4;;;4.8;;
53674;SDS011;39574;50.534;8.500;2024-03-23T09:36:50;15.9;;;4.7;;
53674;SDS011;39574;50.534;8.500;2024-03-23T09:41:47;15.3;;;4.6;;
53674;SDS011;39574;50.534;8.500;2024-03-23T09:46:46;14.6;;;4.3;;
53674;SDS011;39574;50.534;8.500;2024-03-23T09:51:45;13.3;;;4.2;;
53674;SDS011;39574;50.534;8.500;2024-03-23T09:56:44;12.2;;;4.0;;
53674;SDS011;39574;50.534;8.500;2024-03-23T10:01:44;11.7;;;3.9;;
53674;SDS011;39574;50.534;8.500;2024-03-23T10:06:43;12.0;;;3.9;;
53674;SDS011;39574;50.534;8.500;2024-03-23T10:11:41;11.7;;;3.8;;
53674;SDS011;39574;50.534;8.500;2024-03-23T10:16:41;10.1;;;3.2;;
53674;SDS011;39574;50.534;8.500;2024-03-23T10:21:40;9.3;;;3.2;;
53674;SDS011;39574;50.534;8.500;2024-03-23T10:26:39;8.0;;;2.9;;
53674;SDS011;39574;50.534;8.500;2024-03-23T10:31:38;9.3;;;3.0;;
53674;SDS011;39574;50.534;8.500;2024-03-23T10:36:36;9.7;;;3.1;;
53674;SDS011;39574;50.534;8.500;2024-03-23T10:41:36;10.3;;;3.2;;
53674;SDS011;39574;50.534;8.500;2024-03-23T10:46:34;10.1;;;3.3;;
53674;SDS011;39574;50.534;8.500;2024-03-23T10:56:34;10.0;;;3.3;;
53674;SDS011;39574;50.534;8.500;2024-03-23T11:01:32;9.8;;;3.3;;
53674;SDS011;39574;50.534;8.500;2024-03-23T11:06:34;9.5;;;3.3;;
53674;SDS011;39574;50.534;8.500;2024-03-23T11:11:30;9.2;;;3.2;;
53674;SDS011;39574;50.534;8.500;2024-03-23T11:16:29;9.8;;;3.5;;
53674;SDS011;39574;50.534;8.500;2024-03-23T11:22:01;11.1;;;3.9;;
53674;SDS011;39574;50.534;8.500;2024-03-23T11:26:28;10.9;;;3.8;;
53674;SDS011;39574;50.534;8.500;2024-03-23T11:31:27;11.6;;;3.6;;
53674;SDS011;39574;50.534;8.500;2024-03-23T11:36:26;11.4;;;3.4;;
53674;SDS011;39574;50.534;8.500;2024-03-23T11:41:29;11.5;;;3.8;;
53674;SDS011;39574;50.534;8.500;2024-03-23T11:51:24;11.1;;;3.8;;
53674;SDS011;39574;50.534;8.500;2024-03-23T11:56:22;10.4;;;3.6;;
53674;SDS011;39574;50.534;8.500;2024-03-23T12:01:22;10.7;;;3.3;;
53674;SDS011;39574;50.534;8.500;2024-03-23T12:06:21;9.4;;;2.9;;
53674;SDS011;39574;50.534;8.500;2024-03-23T12:11:20;9.3;;;2.7;;
53674;SDS011;39574;50.534;8.500;2024-03-23T12:16:20;9.6;;;2.8;;
53674;SDS011;39574;50.534;8.500;2024-03-23T12:21:22;7.8;;;2.5;;
53674;SDS011;39574;50.534;8.500;2024-03-23T12:26:17;6.8;;;2.3;;
53674;SDS011;39574;50.534;8.500;2024-03-23T12:31:16;5.7;;;2.4;;
53674;SDS011;39574;50.534;8.500;2024-03-23T12:46:14;5.4;;;2.3;;
53674;SDS011;39574;50.534;8.500;2024-03-23T12:51:13;5.7;;;2.3;;
53674;SDS011;39574;50.534;8.500;2024-03-23T12:56:12;5.8;;;2.4;;
53674;SDS011;39574;50.534;8.500;2024-03-23T13:01:11;6.2;;;2.4;;
53674;SDS011;39574;50.534;8.500;2024-03-23T13:06:11;5.8;;;2.3;;
53674;SDS011;39574;50.534;8.500;2024-03-23T13:11:10;10.0;;;2.4;;
53674;SDS011;39574;50.534;8.500;2024-03-23T13:16:14;8.3;;;2.0;;
53674;SDS011;39574;50.534;8.500;2024-03-23T13:21:09;7.0;;;1.9;;
53674;SDS011;39574;50.534;8.500;2024-03-23T13:26:07;5.9;;;1.8;;
53674;SDS011;39574;50.534;8.500;2024-03-23T13:31:07;5.5;;;2.0;;
53674;SDS011;39574;50.534;8.500;2024-03-23T13:36:06;5.3;;;2.1;;
53674;SDS011;39574;50.534;8.500;2024-03-23T13:41:04;5.5;;;2.1;;
53674;SDS011;39574;50.534;8.500;2024-03-23T13:46:04;5.3;;;2.2;;
53674;SDS011;39574;50.534;8.500;2024-03-23T13:51:03;5.2;;;2.3;;
53674;SDS011;39574;50.534;8.500;2024-03-23T13:56:02;5.6;;;2.4;;
53674;SDS011;39574;50.534;8.500;2024-03-23T14:01:05;5.8;;;2.6;;
53674;SDS011;39574;50.534;8.500;2024-03-23T14:06:00;6.1;;;2.6;;
53674;SDS011;39574;50.534;8.500;2024-03-23T14:11:00;5.8;;;2.5;;
53674;SDS011;39574;50.534;8.500;2024-03-23T14:15:59;5.6;;;2.4;;
53674;SDS011;39574;50.534;8.500;2024-03-23T14:20:59;5.2;;;2.2;;
53674;SDS011;39574;50.534;8.500;2024-03-23T14:25:57;5.5;;;2.2;;
53674;SDS011;39574;50.534;8.500;2024-03-23T14:30:56;5.6;;;2.2;;
53674;SDS011;39574;50.534;8.500;2024-03-23T14:35:55;5.9;;;2.4;;
53674;SDS011;39574;50.534;8.500;2024-03-23T14:40:57;5.6;;;2.3;;
53674;SDS011;39574;50.534;8.500;2024-03-23T14:46:10;5.9;;;2.2;;
53674;SDS011;39574;50.534;8.500;2024-03-23T14:50:55;6.0;;;2.1;;
53674;SDS011;39574;50.534;8.500;2024-03-23T15:00:51;6.4;;;2.2;;
53674;SDS011;39574;50.534;8.500;2024-03-23T15:05:52;6.8;;;2.2;;
53674;SDS011;39574;50.534;8.500;2024-03-23T15:10:50;6.6;;;2.3;;
53674;SDS011;39574;50.534;8.500;2024-03-23T15:15:49;7.3;;;2.6;;
53674;SDS011;39574;50.534;8.500;2024-03-23T15:20:51;6.4;;;2.6;;
53674;SDS011;39574;50.534;8.500;2024-03-23T15:25:53;6.6;;;2.6;;
53674;SDS011;39574;50.534;8.500;2024-03-23T15:30:46;6.4;;;2.5;;
53674;SDS011;39574;50.534;8.500;2024-03-23T15:35:50;6.5;;;2.6;;
53674;SDS011;39574;50.534;8.500;2024-03-23T15:40:50;6.6;;;2.7;;
53674;SDS011;39574;50.534;8.500;2024-03-23T15:45:43;6.9;;;2.8;;
53674;SDS011;39574;50.534;8.500;2024-03-23T15:50:50;7.8;;;3.1;;
53674;SDS011;39574;50.534;8.500;2024-03-23T15:55:42;8.5;;;3.2;;
53674;SDS011;39574;50.534;8.500;2024-03-23T16:05:40;8.5;;;3.2;;
53674;SDS011;39574;50.534;8.500;2024-03-23T16:10:39;9.7;;;3.9;;
53674;SDS011;39574;50.534;8.500;2024-03-23T16:15:38;12.5;;;5.9;;
53674;SDS011;39574;50.534;8.500;2024-03-23T16:20:37;12.5;;;6.2;;
53674;SDS011;39574;50.534;8.500;2024-03-23T16:25:45;10.0;;;4.9;;
53674;SDS011;39574;50.534;8.500;2024-03-23T16:30:39;7.7;;;3.6;;
53674;SDS011;39574;50.534;8.500;2024-03-23T16:35:39;5.6;;;2.5;;
53674;SDS011;39574;50.534;8.500;2024-03-23T16:40:34;5.3;;;2.4;;
53674;SDS011;39574;50.534;8.500;2024-03-23T16:45:32;4.9;;;2.3;;
53674;SDS011;39574;50.534;8.500;2024-03-23T16:55:31;5.0;;;2.3;;
53674;SDS011;39574;50.534;8.500;2024-03-23T17:00:29;6.8;;;3.0;;
53674;SDS011;39574;50.534;8.500;2024-03-23T17:05:29;6.5;;;2.8;;
53674;SDS011;39574;50.534;8.500;2024-03-23T17:10:28;6.8;;;2.9;;
53674;SDS011;39574;50.534;8.500;2024-03-23T17:15:27;6.4;;;2.7;;
53674;SDS011;39574;50.534;8.500;2024-03-23T17:20:25;6.7;;;2.9;;
53674;SDS011;39574;50.534;8.500;2024-03-23T17:25:28;7.2;;;3.3;;
53674;SDS011;39574;50.534;8.500;2024-03-23T17:30:24;7.0;;;3.1;;
53674;SDS011;39574;50.534;8.500;2024-03-23T17:35:23;9.4;;;3.5;;
53674;SDS011;39574;50.534;8.500;2024-03-23T17:40:22;9.9;;;3.9;;
53674;SDS011;39574;50.534;8.500;2024-03-23T17:45:20;8.5;;;3.4;;
53674;SDS011;39574;50.534;8.500;2024-03-23T17:50:19;7.4;;;3.0;;
53674;SDS011;39574;50.534;8.500;2024-03-23T17:55:19;6.5;;;2.9;;
53674;SDS011;39574;50.534;8.500;2024-03-23T18:00:18;5.9;;;2.6;;
53674;SDS011;39574;50.534;8.500;2024-03-23T18:05:17;5.8;;;2.3;;
53674;SDS011;39574;50.534;8.500;2024-03-23T18:10:15;5.5;;;2.2;;
53674;SDS011;39574;50.534;8.500;2024-03-23T18:15:14;5.3;;;2.0;;
53674;SDS011;39574;50.534;8.500;2024-03-23T18:20:13;5.2;;;2.0;;
53674;SDS011;39574;50.534;8.500;2024-03-23T18:25:16;6.0;;;2.6;;
53674;SDS011;39574;50.534;8.500;2024-03-23T18:30:11;6.5;;;2.5;;
53674;SDS011;39574;50.534;8.500;2024-03-23T18:35:10;6.8;;;2.6;;
53674;SDS011;39574;50.534;8.500;2024-03-23T18:40:09;7.5;;;2.7;;
53674;SDS011;39574;50.534;8.500;2024-03-23T18:45:08;7.0;;;2.7;;
53674;SDS011;39574;50.534;8.500;2024-03-23T18:50:06;6.5;;;2.7;;
53674;SDS011;39574;50.534;8.500;2024-03-23T18:55:05;6.3;;;2.5;;
53674;SDS011;39574;50.534;8.500;2024-03-23T19:00:04;5.6;;;2.3;;
53674;SDS011;39574;50.534;8.500;2024-03-23T19:05:04;5.5;;;2.3;;
53674;SDS011;39574;50.534;8.500;2024-03-23T19:10:02;5.5;;;2.4;;
53674;SDS011;39574;50.534;8.500;2024-03-23T19:20:00;6.2;;;2.5;;
53674;SDS011;39574;50.534;8.500;2024-03-23T19:24:59;6.5;;;2.9;;
53674;SDS011;39574;50.534;8.500;2024-03-23T19:29:58;6.8;;;3.3;;
53674;SDS011;39574;50.534;8.500;2024-03-23T19:39:56;6.9;;;3.7;;
53674;SDS011;39574;50.534;8.500;2024-03-23T19:44:55;6.6;;;3.2;;
53674;SDS011;39574;50.534;8.500;2024-03-23T19:54:52;8.4;;;3.7;;
53674;SDS011;39574;50.534;8.500;2024-03-23T19:59:51;7.5;;;3.0;;
53674;SDS011;39574;50.534;8.500;2024-03-23T20:04:50;7.3;;;2.9;;
53674;SDS011;39574;50.534;8.500;2024-03-23T20:09:53;6.7;;;2.8;;
53674;SDS011;39574;50.534;8.500;2024-03-23T20:14:47;5.8;;;2.4;;
53674;SDS011;39574;50.534;8.500;2024-03-23T20:19:47;5.8;;;2.5;;
53674;SDS011;39574;50.534;8.500;2024-03-23T20:24:45;5.7;;;2.7;;
53674;SDS011;39574;50.534;8.500;2024-03-23T20:29:45;5.5;;;2.6;;
53674;SDS011;39574;50.534;8.500;2024-03-23T20:34:45;6.2;;;2.8;;
53674;SDS011;39574;50.534;8.500;2024-03-23T20:39:42;6.2;;;2.6;;
53674;SDS011;39574;50.534;8.500;2024-03-23T20:44:41;6.6;;;2.7;;
53674;SDS011;39574;50.534;8.500;2024-03-23T20:49:40;6.8;;;2.8;;
53674;SDS011;39574;50.534;8.500;2024-03-23T20:54:39;7.1;;;2.9;;
53674;SDS011;39574;50.534;8.500;2024-03-23T20:59:38;7.0;;;2.7;;
53674;SDS011;39574;50.534;8.500;2024-03-23T21:04:37;7.5;;;3.0;;
53674;SDS011;39574;50.534;8.500;2024-03-23T21:09:36;6.9;;;2.8;;
53674;SDS011;39574;50.534;8.500;2024-03-23T21:14:35;6.8;;;2.8;;
53674;SDS011;39574;50.534;8.500;2024-03-23T21:19:33;7.3;;;2.4;;
53674;SDS011;39574;50.534;8.500;2024-03-23T21:24:34;6.3;;;2.3;;
53674;SDS011;39574;50.534;8.500;2024-03-23T21:29:31;6.1;;;2.3;;
53674;SDS011;39574;50.534;8.500;2024-03-23T21:39:29;5.8;;;2.1;;
53674;SDS011;39574;50.534;8.500;2024-03-23T21:44:28;6.0;;;2.2;;
53674;SDS011;39574;50.534;8.500;2024-03-23T21:54:25;6.2;;;2.0;;
53674;SDS011;39574;50.534;8.500;2024-03-23T21:59:24;6.0;;;2.0;;
53674;SDS011;39574;50.534;8.500;2024-03-23T22:04:24;5.4;;;1.9;;
53674;SDS011;39574;50.534;8.500;2024-03-23T22:09:22;5.5;;;1.9;;
53674;SDS011;39574;50.534;8.500;2024-03-23T22:14:21;5.0;;;1.9;;
53674;SDS011;39574;50.534;8.500;2024-03-23T22:19:19;5.1;;;1.9;;
53674;SDS011;39574;50.534;8.500;2024-03-23T22:24:18;5.0;;;2.0;;
53674;SDS011;39574;50.534;8.500;2024-03-23T22:29:18;4.7;;;1.9;;
53674;SDS011;39574;50.534;8.500;2024-03-23T22:34:17;4.7;;;2.0;;
53674;SDS011;39574;50.534;8.500;2024-03-23T22:39:15;5.2;;;2.0;;
53674;SDS011;39574;50.534;8.500;2024-03-23T22:44:14;5.2;;;2.0;;
53674;SDS011;39574;50.534;8.500;2024-03-23T22:49:13;4.9;;;2.0;;
53674;SDS011;39574;50.534;8.500;2024-03-23T22:54:12;5.6;;;2.0;;
53674;SDS011;39574;50.534;8.500;2024-03-23T22:59:12;5.9;;;2.0;;
53674;SDS011;39574;50.534;8.500;2024-03-23T23:04:10;5.8;;;2.0;;
53674;SDS011;39574;50.534;8.500;2024-03-23T23:09:08;5.3;;;1.9;;
53674;SDS011;39574;50.534;8.500;2024-03-23T23:14:08;5.1;;;1.9;;
53674;SDS011;39574;50.534;8.500;2024-03-23T23:19:11;5.4;;;1.9;;
53674;SDS011;39574;50.534;8.500;2024-03-23T23:24:06;5.4;;;1.9;;
53674;SDS011;39574;50.534;8.500;2024-03-23T23:29:04;5.8;;;2.1;;
53674;SDS011;39574;50.534;8.500;2024-03-23T23:34:04;5.7;;;2.3;;
53674;SDS011;39574;50.534;8.500;2024-03-23T23:39:03;6.4;;;2.3;;
53674;SDS011;39574;50.534;8.500;2024-03-23T23:44:01;6.1;;;2.5;;
53674;SDS011;39574;50.534;8.500;2024-03-23T23:49:00;6.5;;;2.5;;
53674;SDS011;39574;50.534;8.500;2024-03-23T23:53:59;7.3;;;2.5;;
53674;SDS011;39574;50.534;8.500;2024-03-23T23:58:58;7.3;;;2.8;;
